createdAt,value
2019-01-05T00:01:47.185Z,19.97
2019-01-05T00:04:35.262Z,17.87
2019-01-05T00:07:23.620Z,19.33
2019-01-05T00:10:09.467Z,16.80
2019-01-05T00:13:00.479Z,22.20
2019-01-05T00:15:56.085Z,16.87
2019-01-05T00:18:41.193Z,17.10
2019-01-05T00:21:32.795Z,16.53
2019-01-05T00:24:20.004Z,14.73
2019-01-05T00:27:08.388Z,13.77
2019-01-05T00:29:57.566Z,18.77
2019-01-05T00:32:52.435Z,16.70
2019-01-05T00:36:00.793Z,15.23
2019-01-05T00:39:09.257Z,13.13
2019-01-05T00:42:02.359Z,13.20
2019-01-05T00:45:09.585Z,13.40
2019-01-05T00:48:05.232Z,10.90
2019-01-05T00:50:52.428Z,12.93
2019-01-05T00:53:49.993Z,14.90
2019-01-05T00:56:47.688Z,19.13
2019-01-05T00:59:31.773Z,13.37
2019-01-05T01:02:35.509Z,14.10
2019-01-05T01:05:21.610Z,13.57
2019-01-05T01:08:08.114Z,26.40
2019-01-05T01:10:55.801Z,29.67
2019-01-05T01:13:43.046Z,20.03
2019-01-05T01:16:23.683Z,23.70
2019-01-05T01:19:08.153Z,47.97
2019-01-05T01:22:02.344Z,19.70
2019-01-05T01:24:54.950Z,16.77
2019-01-05T01:27:41.786Z,18.33
2019-01-05T01:30:28.805Z,13.67
2019-01-05T01:33:15.251Z,15.90
2019-01-05T01:36:09.698Z,17.93
2019-01-05T01:39:18.903Z,14.33
2019-01-05T01:42:19.361Z,9.27
2019-01-05T01:45:06.168Z,10.47
2019-01-05T01:47:55.049Z,8.53
2019-01-05T01:50:42.800Z,10.90
2019-01-05T01:53:32.854Z,8.03
2019-01-05T01:56:19.137Z,11.00
2019-01-05T01:59:15.230Z,9.77
2019-01-05T02:02:02.535Z,8.20
2019-01-05T02:05:03.300Z,6.13
2019-01-05T02:07:53.697Z,6.17
2019-01-05T02:10:46.149Z,9.80
2019-01-05T02:13:49.046Z,9.03
2019-01-05T02:16:40.033Z,7.33
2019-01-05T02:19:59.318Z,7.70
2019-01-05T02:23:10.917Z,5.83
2019-01-05T02:26:26.397Z,6.20
2019-01-05T02:30:08.588Z,8.60
2019-01-05T02:33:45.511Z,6.23
2019-01-05T02:37:16.713Z,9.30
2019-01-05T02:40:28.375Z,5.20
2019-01-05T02:43:59.785Z,7.50
2019-01-05T02:47:04.493Z,6.27
2019-01-05T02:50:28.343Z,6.97
2019-01-05T02:53:57.513Z,4.50
2019-01-05T02:57:29.333Z,3.83
2019-01-05T03:00:49.472Z,4.30
2019-01-05T03:04:21.165Z,2.93
2019-01-05T03:07:48.818Z,2.40
2019-01-05T03:11:11.025Z,3.17
2019-01-05T03:14:27.083Z,1.60
2019-01-05T03:17:49.019Z,4.00
2019-01-05T03:21:03.440Z,2.90
2019-01-05T03:24:25.501Z,2.50
2019-01-05T03:28:03.082Z,2.77
2019-01-05T03:31:25.930Z,3.17
2019-01-05T03:34:28.874Z,1.70
2019-01-05T03:37:45.697Z,3.10
2019-01-05T03:41:08.175Z,2.47
2019-01-05T03:44:51.117Z,4.27
2019-01-05T03:48:34.039Z,3.30
2019-01-05T03:52:07.194Z,2.17
2019-01-05T03:55:48.228Z,1.57
2019-01-05T03:59:31.082Z,2.43
2019-01-05T04:03:09.661Z,2.30
2019-01-05T04:06:32.195Z,1.90
2019-01-05T04:09:53.617Z,1.77
2019-01-05T04:13:07.085Z,2.50
2019-01-05T04:16:35.595Z,3.10
2019-01-05T04:20:13.109Z,2.17
2019-01-05T04:23:52.917Z,2.37
2019-01-05T04:27:13.425Z,3.00
2019-01-05T04:30:49.471Z,2.50
2019-01-05T04:34:22.374Z,2.20
2019-01-05T04:37:45.106Z,3.47
2019-01-05T04:40:47.739Z,2.00
2019-01-05T04:43:59.899Z,2.53
2019-01-05T04:47:29.150Z,2.77
2019-01-05T04:50:45.547Z,2.47
2019-01-05T04:54:16.073Z,2.63
2019-01-05T04:58:05.584Z,1.60
2019-01-05T05:01:47.183Z,1.53
2019-01-05T05:05:10.169Z,1.97
2019-01-05T05:08:46.401Z,2.27
2019-01-05T05:12:14.959Z,1.73
2019-01-05T05:16:10.737Z,1.47
2019-01-05T05:19:39.018Z,2.80
2019-01-05T05:23:04.694Z,1.90
2019-01-05T05:26:19.513Z,1.40
2019-01-05T05:29:57.481Z,1.20
2019-01-05T05:33:02.782Z,1.37
2019-01-05T05:36:25.904Z,1.90
2019-01-05T05:40:15.889Z,1.73
2019-01-05T05:43:30.685Z,1.53
2019-01-05T05:47:04.926Z,1.70
2019-01-05T05:50:25.287Z,1.67
2019-01-05T05:53:40.377Z,1.60
2019-01-05T05:57:21.048Z,2.03
2019-01-05T06:00:59.459Z,1.60
2019-01-05T06:04:21.179Z,3.10
2019-01-05T06:07:56.208Z,2.10
2019-01-05T06:11:18.903Z,3.93
2019-01-05T06:14:35.239Z,2.53
2019-01-05T06:18:01.353Z,2.57
2019-01-05T06:21:09.783Z,3.23
2019-01-05T06:24:22.310Z,4.40
2019-01-05T06:28:14.478Z,5.60
2019-01-05T06:31:36.824Z,4.63
2019-01-05T06:35:00.669Z,4.60
2019-01-05T06:38:11.829Z,6.37
2019-01-05T06:41:36.970Z,7.93
2019-01-05T06:45:22.052Z,4.17
2019-01-05T06:48:36.082Z,2.50
2019-01-05T06:51:56.300Z,7.13
2019-01-05T06:55:09.026Z,3.27
2019-01-05T06:58:24.154Z,4.10
2019-01-05T07:01:50.029Z,4.13
2019-01-05T07:05:29.399Z,4.93
2019-01-05T07:08:44.036Z,5.30
2019-01-05T07:11:54.953Z,3.83
2019-01-05T07:15:09.224Z,3.93
2019-01-05T07:18:50.242Z,3.20
2019-01-05T07:22:12.795Z,3.33
2019-01-05T07:25:54.105Z,4.27
2019-01-05T07:29:16.887Z,5.50
2019-01-05T07:33:03.885Z,3.03
2019-01-05T07:36:44.986Z,3.40
2019-01-05T07:40:02.974Z,13.77
2019-01-05T07:43:34.938Z,29.33
2019-01-05T07:46:55.485Z,17.17
2019-01-05T07:50:18.173Z,15.17
2019-01-05T07:53:51.413Z,10.53
2019-01-05T07:57:11.073Z,6.47
2019-01-05T08:00:47.543Z,6.03
2019-01-05T08:04:24.110Z,5.60
2019-01-05T08:07:47.416Z,5.73
2019-01-05T08:11:00.389Z,7.20
2019-01-05T08:14:42.570Z,8.60
2019-01-05T08:18:13.329Z,4.80
2019-01-05T08:21:36.281Z,6.20
2019-01-05T08:24:52.729Z,28.93
2019-01-05T08:28:15.657Z,12.20
2019-01-05T08:31:33.949Z,5.50
2019-01-05T08:34:52.383Z,4.20
2019-01-05T08:38:23.017Z,4.77
2019-01-05T08:41:32.608Z,4.83
2019-01-05T08:44:54.104Z,5.60
2019-01-05T08:48:15.392Z,8.27
2019-01-05T08:51:27.206Z,6.33
2019-01-05T08:54:51.582Z,7.13
2019-01-05T08:58:36.977Z,9.13
2019-01-05T09:02:04.400Z,5.20
2019-01-05T09:05:33.834Z,4.50
2019-01-05T09:09:02.407Z,4.00
2019-01-05T09:12:25.358Z,5.57
2019-01-05T09:15:59.117Z,3.50
2019-01-05T09:19:44.618Z,5.57
2019-01-05T09:23:06.070Z,9.20
2019-01-05T09:26:35.806Z,8.03
2019-01-05T09:29:53.102Z,7.73
2019-01-05T09:33:29.830Z,6.03
2019-01-05T09:36:55.818Z,4.23
2019-01-05T09:40:31.150Z,4.97
2019-01-05T09:44:05.436Z,11.13
2019-01-05T09:47:38.637Z,7.20
2019-01-05T09:51:00.105Z,8.80
2019-01-05T09:55:02.994Z,5.80
2019-01-05T09:58:27.485Z,6.43
2019-01-05T10:01:51.589Z,5.20
2019-01-05T10:05:00.157Z,6.00
2019-01-05T10:08:23.258Z,7.60
2019-01-05T10:11:51.960Z,8.37
2019-01-05T10:15:22.009Z,9.80
2019-01-05T10:18:51.361Z,15.03
2019-01-05T10:22:19.962Z,12.50
2019-01-05T10:25:38.084Z,9.47
2019-01-05T10:28:49.669Z,9.30
2019-01-05T10:35:12.729Z,9.70
2019-01-05T10:38:42.080Z,8.03
2019-01-05T10:42:06.398Z,14.20
2019-01-05T10:45:19.230Z,9.27
2019-01-05T10:48:59.885Z,12.00
2019-01-05T10:52:05.315Z,9.07
2019-01-05T10:55:20.062Z,7.60
2019-01-05T10:58:51.821Z,7.70
2019-01-05T11:02:15.770Z,13.47
2019-01-05T11:06:11.237Z,12.87
2019-01-05T11:09:52.671Z,11.77
2019-01-05T11:12:58.297Z,9.13
2019-01-05T11:16:10.325Z,9.60
2019-01-05T11:19:36.530Z,8.53
2019-01-05T11:22:49.065Z,8.60
2019-01-05T11:26:29.957Z,7.47
2019-01-05T11:29:53.836Z,11.97
2019-01-05T11:33:41.318Z,11.57
2019-01-05T11:37:23.069Z,11.40
2019-01-05T11:40:44.009Z,9.27
2019-01-05T11:44:17.926Z,10.73
2019-01-05T11:47:37.316Z,11.83
2019-01-05T11:51:02.912Z,6.00
2019-01-05T11:54:31.235Z,4.40
2019-01-05T11:58:17.826Z,8.77
2019-01-05T12:01:28.873Z,6.57
2019-01-05T12:05:03.123Z,11.77
2019-01-05T12:08:34.894Z,9.00
2019-01-05T12:12:03.869Z,8.80
2019-01-05T12:15:29.930Z,9.03
2019-01-05T12:18:51.653Z,8.67
2019-01-05T12:22:21.128Z,12.20
2019-01-05T12:25:49.449Z,5.40
2019-01-05T12:29:12.389Z,7.23
2019-01-05T12:36:16.943Z,6.30
2019-01-05T12:40:03.702Z,8.80
2019-01-05T12:43:30.159Z,4.97
2019-01-05T12:47:07.917Z,7.13
2019-01-05T12:50:51.048Z,9.23
2019-01-05T12:54:27.061Z,5.00
2019-01-05T12:58:14.891Z,6.53
2019-01-05T13:01:44.919Z,9.13
2019-01-05T13:05:06.342Z,8.77
2019-01-05T13:08:40.186Z,7.10
2019-01-05T13:12:29.833Z,5.57
2019-01-05T13:15:41.470Z,8.87
2019-01-05T13:19:07.276Z,9.57
2019-01-05T13:22:32.449Z,6.57
2019-01-05T13:26:05.147Z,8.10
2019-01-05T13:30:07.495Z,5.10
2019-01-05T13:33:44.779Z,5.37
2019-01-05T13:37:00.980Z,6.23
2019-01-05T13:40:45.272Z,5.10
2019-01-05T13:44:07.957Z,5.93
2019-01-05T13:47:41.084Z,9.33
2019-01-05T13:51:21.797Z,10.57
2019-01-05T13:54:08.890Z,5.57
2019-01-05T13:57:00.433Z,5.90
2019-01-05T13:59:47.714Z,8.07
2019-01-05T14:02:35.827Z,11.43
2019-01-05T14:05:39.530Z,10.73
2019-01-05T14:08:27.222Z,4.77
2019-01-05T14:11:16.557Z,5.63
2019-01-05T14:14:01.151Z,5.23
2019-01-05T14:16:47.869Z,7.27
2019-01-05T14:19:38.081Z,16.83
2019-01-05T14:22:24.733Z,19.20
2019-01-05T14:25:05.328Z,24.00
2019-01-05T14:27:52.293Z,15.10
2019-01-05T14:30:36.119Z,5.80
2019-01-05T14:33:27.051Z,7.47
2019-01-05T14:36:13.701Z,4.73
2019-01-05T14:39:00.381Z,10.13
2019-01-05T14:42:06.468Z,5.70
2019-01-05T14:45:01.845Z,8.10
2019-01-05T14:48:05.123Z,7.60
2019-01-05T14:50:55.901Z,6.97
2019-01-05T14:53:53.353Z,6.53
2019-01-05T14:56:43.965Z,6.23
2019-01-05T14:59:47.361Z,5.97
2019-01-05T15:02:47.823Z,7.73
2019-01-05T15:05:47.818Z,10.57
2019-01-05T15:08:34.753Z,9.77
2019-01-05T15:11:17.173Z,13.67
2019-01-05T15:13:56.062Z,6.47
2019-01-05T15:16:45.300Z,6.13
2019-01-05T15:19:29.066Z,6.93
2019-01-05T15:22:11.452Z,7.40
2019-01-05T15:27:15.561Z,7.47
2019-01-05T15:53:18.669Z,20.70
2019-01-05T15:56:05.485Z,17.50
2019-01-05T16:04:29.081Z,49.33
2019-01-05T16:07:15.918Z,26.10
2019-01-05T16:10:19.252Z,23.93
2019-01-05T16:13:17.911Z,17.60
2019-01-05T16:16:04.876Z,15.57
2019-01-05T16:19:08.569Z,17.30
2019-01-05T16:22:00.634Z,14.90
2019-01-05T16:24:54.586Z,14.50
2019-01-05T16:27:41.460Z,17.43
2019-01-05T16:30:39.018Z,17.40
2019-01-05T16:33:32.852Z,15.27
2019-01-05T16:36:17.801Z,13.67
2019-01-05T16:39:01.282Z,17.60
2019-01-05T16:41:47.997Z,12.70
2019-01-05T16:44:36.491Z,11.07
2019-01-05T16:47:27.492Z,16.40
2019-01-05T16:50:14.297Z,12.70
2019-01-05T16:53:06.165Z,9.83
2019-01-05T16:55:54.179Z,12.90
2019-01-05T16:58:42.360Z,11.43
2019-01-05T17:01:48.619Z,17.67
2019-01-05T17:04:37.846Z,12.60
2019-01-05T17:07:24.638Z,13.10
2019-01-05T17:10:15.888Z,15.33
2019-01-05T17:13:03.453Z,12.27
2019-01-05T17:15:57.941Z,15.47
2019-01-05T17:18:40.989Z,16.20
2019-01-05T17:21:28.086Z,11.63
2019-01-05T17:24:14.929Z,14.30
2019-01-05T17:27:14.785Z,16.17
2019-01-05T17:30:11.808Z,13.90
2019-01-05T17:32:58.376Z,13.97
2019-01-05T17:35:45.291Z,15.50
2019-01-05T17:38:26.487Z,12.20
2019-01-05T17:41:10.896Z,16.93
2019-01-05T17:44:02.724Z,17.47
2019-01-05T17:46:47.701Z,15.97
2019-01-05T17:49:34.706Z,15.90
2019-01-05T17:52:21.793Z,18.13
2019-01-05T17:55:18.398Z,22.50
2019-01-05T17:58:03.552Z,20.17
2019-01-05T18:01:03.638Z,18.23
2019-01-05T18:03:51.220Z,18.13
2019-01-05T18:06:31.495Z,16.20
2019-01-05T18:09:18.602Z,16.47
2019-01-05T18:12:24.604Z,16.07
2019-01-05T18:15:14.332Z,12.60
2019-01-05T18:18:01.164Z,17.60
2019-01-05T18:20:41.116Z,15.17
2019-01-05T18:23:30.422Z,18.00
2019-01-05T18:26:19.550Z,16.80
2019-01-05T18:29:20.286Z,12.00
2019-01-05T18:32:23.268Z,16.73
2019-01-05T18:35:20.528Z,13.67
2019-01-05T18:38:17.093Z,12.30
2019-01-05T18:41:04.318Z,16.23
2019-01-05T18:43:51.359Z,15.53
2019-01-05T18:46:38.105Z,17.13
2019-01-05T18:49:25.933Z,15.57
2019-01-05T18:52:24.981Z,17.07
2019-01-05T18:55:08.994Z,14.00
2019-01-05T18:58:00.163Z,19.30
2019-01-05T19:00:48.212Z,13.87
2019-01-05T19:03:35.573Z,13.93
2019-01-05T19:06:23.435Z,15.00
2019-01-05T19:09:09.989Z,15.03
2019-01-05T19:12:09.618Z,18.70
2019-01-05T19:14:56.390Z,19.83
2019-01-05T19:17:43.206Z,15.00
2019-01-05T19:20:32.924Z,19.43
2019-01-05T19:23:32.726Z,18.43
2019-01-05T19:26:19.455Z,27.10
2019-01-05T19:29:04.686Z,16.60
2019-01-05T19:31:51.696Z,15.90
2019-01-05T19:34:42.670Z,17.20
2019-01-05T19:37:29.453Z,18.20
2019-01-05T19:40:31.952Z,16.40
2019-01-05T19:43:18.860Z,14.83
2019-01-05T19:46:05.616Z,19.43
2019-01-05T19:49:02.857Z,14.37
2019-01-05T19:51:51.562Z,14.10
2019-01-05T19:54:42.652Z,18.17
2019-01-05T19:57:33.807Z,16.63
2019-01-05T20:00:27.710Z,12.87
2019-01-05T20:03:30.632Z,13.23
2019-01-05T20:06:19.235Z,14.40
2019-01-05T20:09:06.252Z,13.20
2019-01-05T20:12:09.426Z,17.80
2019-01-05T20:14:56.323Z,15.17
2019-01-05T20:17:43.526Z,12.90
2019-01-05T20:20:38.015Z,11.50
2019-01-05T20:23:18.466Z,16.10
2019-01-05T20:26:12.728Z,14.73
2019-01-05T20:28:59.793Z,14.47
2019-01-05T20:31:46.906Z,12.50
2019-01-05T20:34:35.012Z,16.40
2019-01-05T20:37:29.052Z,13.77
2019-01-05T20:40:19.983Z,11.57
2019-01-05T20:43:06.993Z,15.30
2019-01-05T20:45:55.212Z,15.27
2019-01-05T20:48:53.044Z,12.20
2019-01-05T20:51:39.902Z,13.93
2019-01-05T20:54:34.618Z,12.87
2019-01-05T20:57:26.505Z,12.87
2019-01-05T21:00:10.538Z,13.97
2019-01-05T21:03:17.078Z,12.20
2019-01-05T21:06:20.405Z,13.30
2019-01-05T21:09:17.655Z,17.37
2019-01-05T21:12:03.448Z,16.37
2019-01-05T21:14:51.259Z,14.70
2019-01-05T21:17:41.012Z,14.63
2019-01-05T21:20:24.465Z,12.40
2019-01-05T21:23:10.595Z,18.80
2019-01-05T21:25:57.591Z,14.40
2019-01-05T21:28:51.794Z,13.20
2019-01-05T21:31:38.822Z,12.63
2019-01-05T21:34:25.658Z,12.87
2019-01-05T21:37:15.331Z,13.00
2019-01-05T21:40:22.642Z,12.53
2019-01-05T21:43:13.152Z,11.77
2019-01-05T21:46:06.556Z,14.70
2019-01-05T21:48:53.511Z,17.00
2019-01-05T21:51:43.335Z,14.60
2019-01-05T21:54:33.065Z,12.70
2019-01-05T21:57:23.714Z,15.60
2019-01-05T22:00:22.206Z,14.03
2019-01-05T22:03:10.265Z,12.70
2019-01-05T22:06:02.533Z,12.10
2019-01-05T22:08:42.303Z,12.63
2019-01-05T22:11:32.781Z,15.63
2019-01-05T22:14:21.568Z,14.47
2019-01-05T22:17:08.616Z,12.23
2019-01-05T22:20:08.997Z,13.60
2019-01-05T22:23:09.224Z,13.47
2019-01-05T22:26:10.009Z,11.80
2019-01-05T22:28:58.932Z,13.30
2019-01-05T22:31:43.474Z,12.83
2019-01-05T22:34:30.207Z,12.47
2019-01-05T22:37:18.089Z,15.10
2019-01-05T22:40:21.686Z,12.67
2019-01-05T22:43:09.805Z,11.77
2019-01-05T22:46:12.765Z,9.63
2019-01-05T22:48:59.086Z,9.80
2019-01-05T22:51:46.275Z,10.30
2019-01-05T22:54:49.898Z,7.33
2019-01-05T22:57:49.960Z,7.63
2019-01-05T23:00:36.972Z,8.57
2019-01-05T23:03:23.803Z,6.00
2019-01-05T23:06:20.203Z,8.43
2019-01-05T23:09:06.769Z,8.27
2019-01-05T23:11:50.021Z,7.63
2019-01-05T23:14:41.408Z,8.37
2019-01-05T23:17:38.840Z,8.53
2019-01-05T23:20:25.460Z,6.60
2019-01-05T23:23:19.354Z,6.93
2019-01-05T23:26:00.205Z,10.53
2019-01-05T23:28:46.761Z,6.97
2019-01-05T23:31:45.643Z,12.60
2019-01-05T23:34:30.940Z,7.70
2019-01-05T23:37:17.648Z,7.60
2019-01-05T23:40:04.398Z,6.80
2019-01-05T23:43:01.833Z,8.27
2019-01-05T23:45:49.917Z,8.77
2019-01-05T23:48:41.954Z,8.80
2019-01-05T23:51:23.353Z,9.23
2019-01-05T23:54:10.207Z,8.37
2019-01-05T23:56:57.264Z,6.90
2019-01-05T23:59:43.585Z,8.43
